Time;durP1;ratioP1;P1;durP2;ratioP2;P2;SDS_P1;SDS_P2;PMS_P1;PMS_P2;Temp;Humidity;BMP_temperature;BMP_pressure;BME280_temperature;BME280_humidity;BME280_pressure;Samples;Min_cycle;Max_cycle;Signal;HPM_P1;HPM_P2
2022/11/13 00:00:52;;;;;;;;;;;;;;;;;;5281727;27;20326;-69
2022/11/13 00:03:17;;;;;;;;;;;;;;;;;;5281626;27;20321;-69
2022/11/13 00:05:42;;;;;;;;;;;;;;;;;;5281473;27;19948;-70
2022/11/13 00:08:07;;;;;;;;;;;;;;;;;;5283261;27;20627;-69
2022/11/13 00:10:32;;;;;;;;;;;;;;;;;;5282528;27;19940;-70
2022/11/13 00:12:57;;;;;;;;;;;;;;;;;;5282292;27;19960;-70
2022/11/13 00:15:22;;;;;;;;;;;;;;;;;;5281144;27;19972;-70
2022/11/13 00:17:47;;;;;;;;;;;;;;;;;;5283507;27;19935;-69
2022/11/13 00:20:13;;;;;;;;;;;;;;;;;;5281525;27;19976;-70
2022/11/13 00:22:38;;;;;;;;;;;;;;;;;;5282716;27;20307;-70
2022/11/13 00:25:03;;;;;;;;;;;;;;;;;;5283520;27;20291;-70
2022/11/13 00:27:28;;;;;;;;;;;;;;;;;;5281194;27;19993;-70
2022/11/13 00:29:53;;;;;;;;;;;;;;;;;;5281444;27;20004;-70
2022/11/13 00:32:19;;;;;;;;;;;;;;;;;;5282584;27;19960;-69
2022/11/13 00:34:44;;;;;;;;;;;;;;;;;;5282261;27;19963;-69
2022/11/13 00:37:09;;;;;;;;;;;;;;;;;;5281175;27;19933;-68
2022/11/13 00:39:34;;;;;;;;;;;;;;;;;;5280514;27;19936;-70
2022/11/13 00:41:59;;;;;;;;;;;;;;;;;;5280708;27;19993;-69
2022/11/13 00:44:25;;;;;;;;;;;;;;;;;;5281063;27;19947;-69
2022/11/13 00:46:50;;;;;;;;;;;;;;;;;;5282205;27;19932;-70
2022/11/13 00:49:15;;;;;;;;;;;;;;;;;;5282631;27;19996;-70
2022/11/13 00:51:40;;;;;;;;;;;;;;;;;;5280800;27;20345;-69
2022/11/13 00:54:05;;;;;;;;;;;;;;;;;;5283197;27;19929;-72
2022/11/13 00:56:30;;;;;;;;;;;;;;;;;;5282527;27;19928;-70
2022/11/13 00:58:55;;;;;;;;;;;;;;;;;;5280595;27;19970;-71
2022/11/13 01:01:20;;;;;;;;;;;;;;;;;;5280948;27;19955;-71
2022/11/13 01:03:45;;;;;;;;;;;;;;;;;;5280723;27;19958;-70
2022/11/13 01:06:10;;;;;;;;;;;;;;;;;;5281327;27;20283;-68
2022/11/13 01:08:35;;;;;;;;;;;;;;;;;;5281289;27;19929;-70
2022/11/13 01:11:01;;;;;;;;;;;;;;;;;;5280357;27;20356;-70
2022/11/13 01:13:26;;;;;;;;;;;;;;;;;;5283022;27;19971;-70
2022/11/13 01:15:51;;;;;;;;;;;;;;;;;;5282968;27;19929;-70
2022/11/13 01:18:16;;;;;;;;;;;;;;;;;;5281597;27;19928;-70
2022/11/13 01:20:41;;;;;;;;;;;;;;;;;;5283256;27;19933;-69
2022/11/13 01:23:06;;;;;;;;;;;;;;;;;;5282852;27;19987;-69
2022/11/13 01:25:31;;;;;;;;;;;;;;;;;;5282790;27;19963;-69
2022/11/13 01:27:56;;;;;;;;;;;;;;;;;;5282998;27;19929;-69
2022/11/13 01:30:21;;;;;;;;;;;;;;;;;;5282644;27;20366;-70
2022/11/13 01:32:46;;;;;;;;;;;;;;;;;;5283240;27;19960;-69
2022/11/13 01:35:12;;;;;;;;;;;;;;;;;;5282764;27;19959;-70
2022/11/13 01:37:37;;;;;;;;;;;;;;;;;;5282176;27;19983;-71
2022/11/13 01:40:02;;;;;;;;;;;;;;;;;;5273362;27;19960;-72
2022/11/13 01:42:27;;;;;;;;;;;;;;;;;;5280761;27;19928;-71
2022/11/13 01:44:52;;;;;;;;;;;;;;;;;;5259875;27;20078;-72
2022/11/13 01:47:17;;;;;;;;;;;;;;;;;;5279448;27;20268;-71
2022/11/13 01:49:42;;;;;;;;;;;;;;;;;;5281350;27;19970;-71
2022/11/13 01:52:08;;;;;;;;;;;;;;;;;;5262473;27;19962;-72
2022/11/13 01:54:33;;;;;;;;;;;;;;;;;;5279346;27;19999;-72
2022/11/13 01:56:59;;;;;;;;;;;;;;;;;;5279432;27;19928;-72
2022/11/13 01:59:24;;;;;;;;;;;;;;;;;;5259738;27;19973;-72
2022/11/13 02:01:49;;;;;;;;;;;;;;;;;;5262104;27;19946;-72
2022/11/13 02:04:14;;;;;;;;;;;;;;;;;;5262623;27;19924;-72
2022/11/13 02:06:39;;;;;;;;;;;;;;;;;;5280974;27;20321;-72
2022/11/13 02:09:04;;;;;;;;;;;;;;;;;;5281058;27;20003;-72
2022/11/13 02:11:29;;;;;;;;;;;;;;;;;;5281877;27;19943;-71
2022/11/13 02:13:54;;;;;;;;;;;;;;;;;;5280408;27;19929;-72
2022/11/13 02:16:19;;;;;;;;;;;;;;;;;;5279673;27;19934;-72
2022/11/13 02:18:44;;;;;;;;;;;;;;;;;;5282559;27;19929;-72
2022/11/13 02:21:10;;;;;;;;;;;;;;;;;;5279897;27;19959;-72
2022/11/13 02:23:35;;;;;;;;;;;;;;;;;;5280743;27;19928;-71
2022/11/13 02:26:00;;;;;;;;;;;;;;;;;;5281430;27;19936;-71
2022/11/13 02:28:25;;;;;;;;;;;;;;;;;;5281541;27;19929;-71
2022/11/13 02:30:50;;;;;;;;;;;;;;;;;;5278865;27;20003;-71
2022/11/13 02:33:15;;;;;;;;;;;;;;;;;;5279210;27;19995;-71
2022/11/13 02:35:40;;;;;;;;;;;;;;;;;;5279597;27;19924;-71
2022/11/13 02:38:05;;;;;;;;;;;;;;;;;;5279710;27;19950;-72
2022/11/13 02:40:30;;;;;;;;;;;;;;;;;;5281393;27;19935;-72
2022/11/13 02:42:56;;;;;;;;;;;;;;;;;;5281573;27;19928;-72
2022/11/13 02:45:21;;;;;;;;;;;;;;;;;;5279365;27;19936;-71
2022/11/13 02:47:46;;;;;;;;;;;;;;;;;;5280103;27;19936;-71
2022/11/13 02:50:11;;;;;;;;;;;;;;;;;;5279414;27;19960;-72
2022/11/13 02:52:36;;;;;;;;;;;;;;;;;;5279901;27;19929;-71
2022/11/13 02:55:01;;;;;;;;;;;;;;;;;;5280355;27;20247;-71
2022/11/13 02:57:26;;;;;;;;;;;;;;;;;;5278627;27;19990;-72
2022/11/13 02:59:51;;;;;;;;;;;;;;;;;;5280440;27;19963;-72
2022/11/13 03:02:16;;;;;;;;;;;;;;;;;;5279199;27;19948;-72
2022/11/13 03:04:42;;;;;;;;;;;;;;;;;;5279006;27;20062;-72
2022/11/13 03:07:07;;;;;;;;;;;;;;;;;;5277744;27;20063;-72
2022/11/13 03:09:32;;;;;;;;;;;;;;;;;;5276418;27;20004;-72
2022/11/13 03:11:57;;;;;;;;;;;;;;;;;;5279138;27;20211;-72
2022/11/13 03:14:22;;;;;;;;;;;;;;;;;;5280193;27;19956;-72
2022/11/13 03:16:47;;;;;;;;;;;;;;;;;;5276386;27;20299;-72
2022/11/13 03:19:12;;;;;;;;;;;;;;;;;;5278870;27;19990;-71
2022/11/13 03:21:37;;;;;;;;;;;;;;;;;;5279031;27;19924;-71
2022/11/13 03:24:02;;;;;;;;;;;;;;;;;;5277299;27;19936;-71
2022/11/13 03:26:28;;;;;;;;;;;;;;;;;;5280262;27;19935;-71
2022/11/13 03:28:53;;;;;;;;;;;;;;;;;;5278088;27;20309;-71
2022/11/13 03:31:18;;;;;;;;;;;;;;;;;;5276931;27;19932;-71
2022/11/13 03:33:43;;;;;;;;;;;;;;;;;;5277854;27;19937;-72
2022/11/13 03:36:08;;;;;;;;;;;;;;;;;;5280656;27;19959;-71
2022/11/13 03:38:33;;;;;;;;;;;;;;;;;;5277564;27;19963;-71
2022/11/13 03:40:58;;;;;;;;;;;;;;;;;;5280851;27;19929;-69
2022/11/13 03:43:23;;;;;;;;;;;;;;;;;;5283858;27;19928;-70
2022/11/13 03:45:48;;;;;;;;;;;;;;;;;;5280962;27;19935;-71
2022/11/13 03:48:14;;;;;;;;;;;;;;;;;;5279850;27;19939;-71
2022/11/13 03:50:39;;;;;;;;;;;;;;;;;;5280381;27;20251;-71
2022/11/13 03:53:04;;;;;;;;;;;;;;;;;;5279065;27;20319;-71
2022/11/13 03:55:29;;;;;;;;;;;;;;;;;;5279718;27;19962;-72
2022/11/13 03:57:54;;;;;;;;;;;;;;;;;;5279176;27;20012;-71
2022/11/13 04:00:19;;;;;;;;;;;;;;;;;;5280442;27;19928;-71
2022/11/13 04:02:44;;;;;;;;;;;;;;;;;;5279013;27;19936;-71
2022/11/13 04:05:09;;;;;;;;;;;;;;;;;;5279889;27;19955;-71
2022/11/13 04:07:35;;;;;;;;;;;;;;;;;;5279596;27;19928;-72
2022/11/13 04:10:00;;;;;;;;;;;;;;;;;;5278810;27;19984;-71
2022/11/13 04:12:25;;;;;;;;;;;;;;;;;;5277383;27;19944;-71
2022/11/13 04:14:50;;;;;;;;;;;;;;;;;;5278400;27;19928;-72
2022/11/13 04:17:15;;;;;;;;;;;;;;;;;;5278684;27;20274;-72
2022/11/13 04:19:40;;;;;;;;;;;;;;;;;;5279257;27;19944;-72
2022/11/13 04:22:05;;;;;;;;;;;;;;;;;;5280774;27;19963;-72
2022/11/13 04:24:30;;;;;;;;;;;;;;;;;;5276596;27;19929;-71
2022/11/13 04:26:55;;;;;;;;;;;;;;;;;;5278716;27;19929;-72
2022/11/13 04:29:20;;;;;;;;;;;;;;;;;;5278397;27;19928;-72
2022/11/13 04:31:46;;;;;;;;;;;;;;;;;;5278741;27;19943;-72
2022/11/13 04:34:11;;;;;;;;;;;;;;;;;;5278744;27;20074;-72
2022/11/13 04:36:36;;;;;;;;;;;;;;;;;;5280934;27;20259;-71
2022/11/13 04:39:01;;;;;;;;;;;;;;;;;;5277560;27;20294;-71
2022/11/13 04:44:10;;;;;;;;;;;;;;;;;;5278647;27;19968;-72
2022/11/13 04:46:35;;;;;;;;;;;;;;;;;;5279595;27;19928;-72
2022/11/13 04:49:00;;;;;;;;;;;;;;;;;;5278738;27;20321;-73
2022/11/13 04:51:25;;;;;;;;;;;;;;;;;;5280838;27;19933;-71
2022/11/13 04:53:50;;;;;;;;;;;;;;;;;;5281100;27;19928;-71
2022/11/13 04:56:15;;;;;;;;;;;;;;;;;;5280304;27;20115;-72
2022/11/13 04:58:40;;;;;;;;;;;;;;;;;;5278301;27;20040;-72
2022/11/13 05:01:05;;;;;;;;;;;;;;;;;;5279610;27;19929;-71
2022/11/13 05:03:30;;;;;;;;;;;;;;;;;;5279845;27;19972;-70
2022/11/13 05:05:55;;;;;;;;;;;;;;;;;;5281477;27;20271;-72
2022/11/13 05:08:21;;;;;;;;;;;;;;;;;;5280100;27;19935;-72
2022/11/13 05:10:46;;;;;;;;;;;;;;;;;;5281813;27;19932;-72
2022/11/13 05:13:11;;;;;;;;;;;;;;;;;;5283756;27;20046;-71
2022/11/13 05:15:36;;;;;;;;;;;;;;;;;;5281671;27;19948;-72
2022/11/13 05:18:01;;;;;;;;;;;;;;;;;;5281782;27;19932;-71
2022/11/13 05:20:26;;;;;;;;;;;;;;;;;;5283209;27;19955;-72
2022/11/13 05:22:51;;;;;;;;;;;;;;;;;;5281151;27;19928;-72
2022/11/13 05:25:16;;;;;;;;;;;;;;;;;;5280891;27;20024;-72
2022/11/13 05:27:41;;;;;;;;;;;;;;;;;;5281683;27;20054;-72
2022/11/13 05:30:06;;;;;;;;;;;;;;;;;;5282997;27;19975;-72
2022/11/13 05:32:31;;;;;;;;;;;;;;;;;;5279853;27;20372;-71
2022/11/13 05:34:56;;;;;;;;;;;;;;;;;;5279971;27;19943;-72
2022/11/13 05:37:22;;;;;;;;;;;;;;;;;;5280804;27;19928;-72
2022/11/13 05:39:47;;;;;;;;;;;;;;;;;;5279884;27;19944;-72
2022/11/13 05:42:12;;;;;;;;;;;;;;;;;;5282905;27;19935;-72
2022/11/13 05:44:37;;;;;;;;;;;;;;;;;;5282770;27;19947;-72
2022/11/13 05:47:02;;;;;;;;;;;;;;;;;;5280549;27;19964;-72
2022/11/13 05:49:27;;;;;;;;;;;;;;;;;;5280802;27;20040;-72
2022/11/13 05:51:52;;;;;;;;;;;;;;;;;;5282636;27;20290;-71
2022/11/13 05:54:17;;;;;;;;;;;;;;;;;;5280172;27;19944;-71
2022/11/13 05:56:42;;;;;;;;;;;;;;;;;;5282902;27;20351;-72
2022/11/13 05:59:08;;;;;;;;;;;;;;;;;;5280885;27;19924;-73
2022/11/13 06:01:33;;;;;;;;;;;;;;;;;;5281495;27;19956;-72
2022/11/13 06:03:58;;;;;;;;;;;;;;;;;;5283271;27;19929;-72
2022/11/13 06:06:23;;;;;;;;;;;;;;;;;;5282674;27;19944;-72
2022/11/13 06:08:48;;;;;;;;;;;;;;;;;;5279616;27;20257;-72
2022/11/13 06:11:13;;;;;;;;;;;;;;;;;;5282769;27;19932;-72
2022/11/13 06:13:38;;;;;;;;;;;;;;;;;;5280643;27;20309;-72
2022/11/13 06:16:03;;;;;;;;;;;;;;;;;;5280779;27;19946;-72
2022/11/13 06:18:29;;;;;;;;;;;;;;;;;;5280506;27;19959;-71
2022/11/13 06:20:54;;;;;;;;;;;;;;;;;;5277954;27;20244;-70
2022/11/13 06:23:19;;;;;;;;;;;;;;;;;;5279845;27;20043;-71
2022/11/13 06:25:44;;;;;;;;;;;;;;;;;;5279982;27;20215;-71
2022/11/13 06:28:09;;;;;;;;;;;;;;;;;;5278999;27;19943;-71
2022/11/13 06:30:34;;;;;;;;;;;;;;;;;;5282614;27;19939;-71
2022/11/13 06:32:59;;;;;;;;;;;;;;;;;;5280590;27;19928;-72
2022/11/13 06:35:24;;;;;;;;;;;;;;;;;;5280384;27;19939;-71
2022/11/13 06:37:49;;;;;;;;;;;;;;;;;;5279912;27;19967;-71
2022/11/13 06:40:14;;;;;;;;;;;;;;;;;;5278320;27;19947;-72
2022/11/13 06:42:40;;;;;;;;;;;;;;;;;;5278708;27;19928;-72
2022/11/13 06:45:05;;;;;;;;;;;;;;;;;;5280868;27;19928;-71
2022/11/13 06:47:30;;;;;;;;;;;;;;;;;;5279430;27;19928;-71
2022/11/13 06:49:55;;;;;;;;;;;;;;;;;;5282379;27;20346;-71
2022/11/13 06:52:20;;;;;;;;;;;;;;;;;;5280398;27;20337;-71
2022/11/13 06:54:45;;;;;;;;;;;;;;;;;;5280191;27;19964;-71
2022/11/13 06:57:10;;;;;;;;;;;;;;;;;;5279539;27;19928;-71
2022/11/13 06:59:35;;;;;;;;;;;;;;;;;;5280275;27;19960;-72
2022/11/13 07:02:00;;;;;;;;;;;;;;;;;;5279747;27;19932;-71
2022/11/13 07:04:26;;;;;;;;;;;;;;;;;;5279798;27;19943;-71
2022/11/13 07:06:51;;;;;;;;;;;;;;;;;;5280511;27;19935;-71
2022/11/13 07:09:16;;;;;;;;;;;;;;;;;;5279250;27;19928;-71
2022/11/13 07:11:41;;;;;;;;;;;;;;;;;;5279939;27;19974;-71
2022/11/13 07:14:06;;;;;;;;;;;;;;;;;;5280031;27;19928;-71
2022/11/13 07:16:31;;;;;;;;;;;;;;;;;;5281684;27;19978;-71
2022/11/13 07:18:56;;;;;;;;;;;;;;;;;;5279697;27;19928;-72
2022/11/13 07:21:21;;;;;;;;;;;;;;;;;;5280522;27;20288;-71
2022/11/13 07:23:46;;;;;;;;;;;;;;;;;;5279757;27;19963;-71
2022/11/13 07:26:11;;;;;;;;;;;;;;;;;;5279235;27;19982;-71
2022/11/13 07:28:37;;;;;;;;;;;;;;;;;;5277708;27;20238;-71
2022/11/13 07:31:02;;;;;;;;;;;;;;;;;;5279051;27;19950;-71
2022/11/13 07:33:27;;;;;;;;;;;;;;;;;;5280806;27;19955;-71
2022/11/13 07:35:52;;;;;;;;;;;;;;;;;;5281577;27;19951;-71
2022/11/13 07:38:17;;;;;;;;;;;;;;;;;;5279342;27;20295;-71
2022/11/13 07:40:42;;;;;;;;;;;;;;;;;;5281910;27;20036;-70
2022/11/13 07:43:07;;;;;;;;;;;;;;;;;;5277579;27;19928;-71
2022/11/13 07:45:32;;;;;;;;;;;;;;;;;;5281375;27;19956;-72
2022/11/13 07:47:58;;;;;;;;;;;;;;;;;;5279954;27;19955;-71
2022/11/13 07:50:23;;;;;;;;;;;;;;;;;;5279210;27;20288;-72
2022/11/13 07:52:48;;;;;;;;;;;;;;;;;;5279095;27;19928;-71
2022/11/13 07:55:13;;;;;;;;;;;;;;;;;;5277593;27;19952;-71
2022/11/13 07:57:38;;;;;;;;;;;;;;;;;;5279002;27;19928;-72
2022/11/13 08:00:03;;;;;;;;;;;;;;;;;;5279328;27;19955;-71
2022/11/13 08:02:28;;;;;;;;;;;;;;;;;;5281578;27;20257;-71
2022/11/13 08:04:53;;;;;;;;;;;;;;;;;;5279453;27;19928;-72
2022/11/13 08:07:18;;;;;;;;;;;;;;;;;;5281080;27;19958;-72
2022/11/13 08:09:43;;;;;;;;;;;;;;;;;;5280497;27;19932;-72
2022/11/13 08:12:09;;;;;;;;;;;;;;;;;;5279099;27;20054;-71
2022/11/13 08:14:34;;;;;;;;;;;;;;;;;;5277440;27;19928;-71
2022/11/13 08:16:59;;;;;;;;;;;;;;;;;;5280014;27;19939;-72
2022/11/13 08:19:24;;;;;;;;;;;;;;;;;;5278440;27;19928;-72
2022/11/13 08:21:49;;;;;;;;;;;;;;;;;;5278486;27;20078;-73
2022/11/13 08:24:14;;;;;;;;;;;;;;;;;;5279256;27;19951;-73
2022/11/13 08:26:39;;;;;;;;;;;;;;;;;;5280781;27;20270;-72
2022/11/13 08:29:04;;;;;;;;;;;;;;;;;;5279708;27;19928;-72
2022/11/13 08:31:30;;;;;;;;;;;;;;;;;;5280889;27;19942;-73
2022/11/13 08:33:55;;;;;;;;;;;;;;;;;;5281364;27;19940;-71
2022/11/13 08:36:20;;;;;;;;;;;;;;;;;;5279358;27;20307;-72
2022/11/13 08:38:45;;;;;;;;;;;;;;;;;;5278810;27;19928;-72
2022/11/13 08:41:11;;;;;;;;;;;;;;;;;;5278669;27;19982;-72
2022/11/13 08:43:36;;;;;;;;;;;;;;;;;;5280179;27;19968;-72
2022/11/13 08:46:01;;;;;;;;;;;;;;;;;;5280569;27;19958;-72
2022/11/13 08:48:26;;;;;;;;;;;;;;;;;;5278678;27;19928;-72
2022/11/13 08:50:51;;;;;;;;;;;;;;;;;;5276618;27;19932;-72
2022/11/13 08:53:16;;;;;;;;;;;;;;;;;;5280171;27;20287;-72
2022/11/13 08:55:41;;;;;;;;;;;;;;;;;;5278920;27;20048;-72
2022/11/13 08:58:06;;;;;;;;;;;;;;;;;;5280971;27;19928;-72
2022/11/13 09:00:32;;;;;;;;;;;;;;;;;;5280903;27;19959;-72
2022/11/13 09:02:57;;;;;;;;;;;;;;;;;;5280338;27;20325;-73
2022/11/13 09:05:22;;;;;;;;;;;;;;;;;;5281213;27;19935;-73
2022/11/13 09:07:47;;;;;;;;;;;;;;;;;;5279308;27;19932;-74
2022/11/13 09:10:12;;;;;;;;;;;;;;;;;;5278902;27;20337;-74
2022/11/13 09:12:37;;;;;;;;;;;;;;;;;;5278511;27;19938;-73
2022/11/13 09:15:02;;;;;;;;;;;;;;;;;;5281015;27;19933;-73
2022/11/13 09:17:28;;;;;;;;;;;;;;;;;;5281235;27;20321;-73
2022/11/13 09:19:53;;;;;;;;;;;;;;;;;;5278474;27;19955;-73
2022/11/13 09:22:18;;;;;;;;;;;;;;;;;;5280001;27;20058;-72
2022/11/13 09:24:43;;;;;;;;;;;;;;;;;;5281600;27;19964;-71
2022/11/13 09:27:08;;;;;;;;;;;;;;;;;;5283560;27;19932;-72
2022/11/13 09:29:34;;;;;;;;;;;;;;;;;;5284063;27;19963;-73
2022/11/13 09:31:59;;;;;;;;;;;;;;;;;;5282547;27;19925;-73
2022/11/13 09:34:24;;;;;;;;;;;;;;;;;;5284223;27;19928;-73
2022/11/13 09:36:49;;;;;;;;;;;;;;;;;;5282918;27;19964;-73
2022/11/13 09:39:15;;;;;;;;;;;;;;;;;;5281216;27;19951;-73
2022/11/13 09:41:40;;;;;;;;;;;;;;;;;;5281318;27;19958;-73
2022/11/13 09:44:06;;;;;;;;;;;;;;;;;;5284117;27;19932;-72
2022/11/13 09:46:31;;;;;;;;;;;;;;;;;;5282990;27;19940;-75
2022/11/13 09:48:56;;;;;;;;;;;;;;;;;;5281563;27;19959;-73
2022/11/13 09:51:21;;;;;;;;;;;;;;;;;;5282537;27;19937;-72
2022/11/13 09:53:47;;;;;;;;;;;;;;;;;;5280615;27;19933;-73
2022/11/13 09:56:12;;;;;;;;;;;;;;;;;;5282998;27;19924;-72
2022/11/13 09:58:37;;;;;;;;;;;;;;;;;;5283086;27;20228;-72
2022/11/13 10:01:02;;;;;;;;;;;;;;;;;;5283223;27;19951;-72
2022/11/13 10:03:27;;;;;;;;;;;;;;;;;;5285644;27;19928;-71
2022/11/13 10:05:52;;;;;;;;;;;;;;;;;;5283248;27;19964;-72
2022/11/13 10:08:17;;;;;;;;;;;;;;;;;;5282475;27;19928;-72
2022/11/13 10:10:42;;;;;;;;;;;;;;;;;;5283678;27;20319;-72
2022/11/13 10:13:07;;;;;;;;;;;;;;;;;;5285593;27;19936;-72
2022/11/13 10:15:33;;;;;;;;;;;;;;;;;;5284363;27;19982;-71
2022/11/13 10:17:58;;;;;;;;;;;;;;;;;;5285905;27;19936;-72
2022/11/13 10:20:23;;;;;;;;;;;;;;;;;;5293359;27;19964;-73
2022/11/13 10:22:48;;;;;;;;;;;;;;;;;;5285008;27;19967;-69
2022/11/13 10:25:13;;;;;;;;;;;;;;;;;;5282846;27;19929;-72
2022/11/13 10:27:38;;;;;;;;;;;;;;;;;;5282589;27;19959;-72
2022/11/13 10:30:03;;;;;;;;;;;;;;;;;;5282555;27;20303;-72
2022/11/13 10:32:29;;;;;;;;;;;;;;;;;;5282242;27;19929;-72
2022/11/13 10:34:54;;;;;;;;;;;;;;;;;;5284216;27;19999;-72
2022/11/13 10:37:19;;;;;;;;;;;;;;;;;;5285777;27;20270;-71
2022/11/13 10:39:45;;;;;;;;;;;;;;;;;;5283170;27;19939;-72
2022/11/13 10:42:10;;;;;;;;;;;;;;;;;;5283210;27;19955;-72
2022/11/13 10:44:35;;;;;;;;;;;;;;;;;;5282068;27;19935;-73
2022/11/13 10:47:00;;;;;;;;;;;;;;;;;;5281260;27;19932;-73
2022/11/13 10:49:27;;;;;;;;;;;;;;;;;;5283147;27;19940;-73
2022/11/13 10:51:52;;;;;;;;;;;;;;;;;;5282283;27;20354;-72
2022/11/13 10:54:18;;;;;;;;;;;;;;;;;;5281954;27;20382;-73
2022/11/13 10:56:43;;;;;;;;;;;;;;;;;;5283233;27;20267;-73
2022/11/13 10:59:08;;;;;;;;;;;;;;;;;;5280418;27;19971;-72
2022/11/13 11:01:33;;;;;;;;;;;;;;;;;;5282349;27;19979;-72
2022/11/13 11:03:58;;;;;;;;;;;;;;;;;;5279180;27;19932;-72
2022/11/13 11:06:23;;;;;;;;;;;;;;;;;;5280262;27;19990;-73
2022/11/13 11:08:48;;;;;;;;;;;;;;;;;;5280436;27;19940;-72
2022/11/13 11:13:57;;;;;;;;;;;;;;;;;;5278904;27;19954;-73
2022/11/13 11:16:22;;;;;;;;;;;;;;;;;;5280634;27;20003;-72
2022/11/13 11:18:47;;;;;;;;;;;;;;;;;;5280657;27;19928;-72
2022/11/13 11:21:13;;;;;;;;;;;;;;;;;;5278004;27;19939;-73
2022/11/13 11:23:38;;;;;;;;;;;;;;;;;;5278559;27;19936;-73
2022/11/13 11:26:03;;;;;;;;;;;;;;;;;;5278716;27;20030;-73
2022/11/13 11:28:28;;;;;;;;;;;;;;;;;;5281625;27;19944;-72
2022/11/13 11:30:53;;;;;;;;;;;;;;;;;;5279196;27;19964;-73
2022/11/13 11:33:18;;;;;;;;;;;;;;;;;;5278961;27;19936;-72
2022/11/13 11:35:43;;;;;;;;;;;;;;;;;;5278742;27;19979;-72
2022/11/13 11:38:08;;;;;;;;;;;;;;;;;;5279899;27;20299;-72
2022/11/13 11:40:33;;;;;;;;;;;;;;;;;;5278041;27;19941;-72
2022/11/13 11:42:59;;;;;;;;;;;;;;;;;;5280345;27;19929;-71
2022/11/13 11:45:24;;;;;;;;;;;;;;;;;;5278682;27;19943;-71
2022/11/13 11:47:49;;;;;;;;;;;;;;;;;;5280864;27;19942;-73
2022/11/13 11:50:14;;;;;;;;;;;;;;;;;;5279065;27;19944;-73
2022/11/13 11:52:39;;;;;;;;;;;;;;;;;;5279680;27;19943;-71
2022/11/13 11:55:04;;;;;;;;;;;;;;;;;;5277312;27;19976;-72
2022/11/13 11:57:30;;;;;;;;;;;;;;;;;;5280134;27;20304;-72
2022/11/13 11:59:55;;;;;;;;;;;;;;;;;;5279834;27;19925;-72
2022/11/13 12:02:20;;;;;;;;;;;;;;;;;;5276814;27;19928;-72
2022/11/13 12:04:45;;;;;;;;;;;;;;;;;;5276575;27;19947;-72
2022/11/13 12:07:10;;;;;;;;;;;;;;;;;;5278685;27;19932;-72
2022/11/13 12:09:35;;;;;;;;;;;;;;;;;;5278023;27;19963;-71
2022/11/13 12:12:00;;;;;;;;;;;;;;;;;;5277080;27;19928;-72
2022/11/13 12:16:23;;;;;;;8.57;6.97;;;;;;;;;;4492269;31;20430;-72
2022/11/13 12:18:54;;;;;;;7.95;7.10;;;;;;;;;;4463501;32;20067;-72
2022/11/13 12:21:26;;;;;;;10.02;7.45;;;;;;;;;;4477999;32;20073;-71
2022/11/13 12:24:06;;;;;;;8.88;7.25;;;;;;;;;;4477279;32;20036;-73
2022/11/13 12:26:38;;;;;;;10.13;7.28;;;;;;;;;;4478994;32;20047;-72
2022/11/13 12:29:36;;;;;;;9.27;7.60;;;;;;;;;;4479061;32;20112;-72
2022/11/13 12:32:07;;;;;;;9.93;7.60;;;;;;;;;;4438123;32;20108;-71
2022/11/13 12:34:38;;;;;;;9.80;7.57;;;;;;;;;;4477363;32;20097;-72
2022/11/13 12:37:19;;;;;;;7.65;6.43;;;;;;;;;;4478623;32;20076;-71
2022/11/13 12:39:54;;;;;;;10.02;6.95;;;;;;;;;;4467044;32;20099;-71
2022/11/13 12:42:23;;;;;;;9.00;7.53;;;;;;;;;;4462732;32;20094;-72
2022/11/13 12:44:52;;;;;;;8.25;6.85;;;;;;;;;;4446574;32;20089;-72
2022/11/13 12:47:18;;;;;;;7.07;6.35;;;;;;;;;;4461089;32;20435;-72
2022/11/13 12:49:43;;;;;;;7.50;6.30;;;;;;;;;;4460747;32;20080;-72
2022/11/13 12:52:14;;;;;;;9.32;7.50;;;;;;;;;;4461181;32;20030;-73
2022/11/13 12:54:39;;;;;;;8.40;5.97;;;;;;;;;;4461376;32;20028;-71
2022/11/13 12:57:17;;;;;;;11.15;7.22;;;;;;;;;;4460641;32;20467;-71
2022/11/13 12:59:55;;;;;;;7.45;6.60;;;;;;;;;;4461984;32;20093;-71
2022/11/13 13:02:26;;;;;;;10.63;7.97;;;;;;;;;;4461210;32;20025;-71
2022/11/13 13:04:54;;;;;;;9.07;7.70;;;;;;;;;;4460348;32;20096;-72
2022/11/13 13:07:31;;;;;;;10.27;8.82;;;;;;;;;;4461920;32;20089;-73
2022/11/13 13:10:07;;;;;;;10.90;7.07;;;;;;;;;;4446501;32;20097;-72
2022/11/13 13:12:35;;;;;;;10.68;7.12;;;;;;;;;;4461371;32;20045;-72
2022/11/13 13:15:07;;;;;;;7.35;6.25;;;;;;;;;;4460476;32;20064;-71
2022/11/13 13:17:32;;;;;;;9.30;7.20;;;;;;;;;;4447461;32;20056;-73
2022/11/13 13:19:59;;;;;;;8.68;7.47;;;;;;;;;;4461792;32;20025;-72
2022/11/13 13:22:26;;;;;;;9.50;7.20;;;;;;;;;;4461934;32;20576;-71
2022/11/13 13:25:06;;;;;;;12.15;8.70;;;;;;;;;;4462384;32;20033;-72
2022/11/13 13:27:36;;;;;;;11.55;8.32;;;;;;;;;;4448147;32;20045;-72
2022/11/13 13:30:11;;;;;;;9.95;7.32;;;;;;;;;;4442475;32;20025;-72
2022/11/13 13:32:52;;;;;;;13.80;10.23;;;;;;;;;;4432609;32;20033;-72
2022/11/13 13:35:18;;;;;;;9.25;8.23;;;;;;;;;;4441553;32;20041;-73
2022/11/13 13:38:02;;;;;;;12.57;10.70;;;;;;;;;;4441616;32;20436;-72
2022/11/13 13:40:45;;;;;;;9.02;7.68;;;;;;;;;;4442599;32;20063;-71
2022/11/13 13:43:16;;;;;;;9.75;7.70;;;;;;;;;;4440977;32;20465;-71
2022/11/13 13:46:00;;;;;;;11.93;6.80;;;;;;;;;;4442188;32;20416;-71
2022/11/13 13:48:28;;;;;;;8.88;7.15;;;;;;;;;;4441616;32;20044;-71
2022/11/13 13:50:53;;;;;;;7.47;6.50;;;;;;;;;;4439930;32;20053;-71
2022/11/13 13:53:37;;;;;;;11.30;7.18;;;;;;;;;;4433147;32;20063;-72
2022/11/13 13:56:03;;;;;;;7.65;6.50;;;;;;;;;;4433679;32;20068;-71
2022/11/13 13:58:29;;;;;;;8.20;5.82;;;;;;;;;;4442493;32;20379;-71
2022/11/13 14:00:56;;;;;;;6.68;5.97;;;;;;;;;;4441344;32;20054;-72
2022/11/13 14:03:22;;;;;;;7.40;6.60;;;;;;;;;;4441577;32;20064;-72
2022/11/13 14:05:47;;;;;;;8.98;6.28;;;;;;;;;;4432598;32;20046;-74
2022/11/13 14:08:16;;;;;;;10.00;6.80;;;;;;;;;;4434307;32;20168;-72
2022/11/13 14:10:42;;;;;;;9.27;6.57;;;;;;;;;;4437099;32;20360;-72
2022/11/13 14:13:10;;;;;;;6.50;5.47;;;;;;;;;;4449786;32;20025;-71
2022/11/13 14:15:36;;;;;;;6.62;5.70;;;;;;;;;;4447631;32;20071;-71
2022/11/13 14:18:12;;;;;;;9.75;6.95;;;;;;;;;;4449869;32;20331;-72
2022/11/13 14:20:44;;;;;;;8.10;6.03;;;;;;;;;;4449073;32;20025;-71
2022/11/13 14:23:11;;;;;;;8.00;6.07;;;;;;;;;;4444140;32;20252;-70
2022/11/13 14:25:36;;;;;;;8.32;6.20;;;;;;;;;;4439712;32;20411;-69
2022/11/13 14:28:02;;;;;;;6.82;5.90;;;;;;;;;;4432566;32;20037;-71
2022/11/13 14:30:29;;;;;;;8.25;5.93;;;;;;;;;;4443300;32;20033;-72
2022/11/13 14:32:54;;;;;;;10.32;7.15;;;;;;;;;;4431789;32;20102;-72
2022/11/13 14:35:21;;;;;;;10.13;7.65;;;;;;;;;;4439942;32;20347;-72
2022/11/13 14:37:47;;;;;;;9.98;7.05;;;;;;;;;;4439510;32;20032;-72
2022/11/13 14:40:19;;;;;;;14.45;7.50;;;;;;;;;;4440729;32;20197;-72
2022/11/13 14:42:47;;;;;;;9.20;7.60;;;;;;;;;;4442323;32;20092;-71
2022/11/13 14:45:13;;;;;;;10.75;7.40;;;;;;;;;;4431843;32;20427;-71
2022/11/13 14:47:38;;;;;;;15.32;7.72;;;;;;;;;;4439245;32;20045;-72
2022/11/13 14:50:13;;;;;;;11.77;7.90;;;;;;;;;;4435137;32;20081;-72
2022/11/13 14:52:38;;;;;;;14.00;8.15;;;;;;;;;;4440212;32;20436;-71
2022/11/13 14:55:05;;;;;;;9.73;8.20;;;;;;;;;;4441903;32;20077;-71
2022/11/13 14:57:30;;;;;;;11.30;8.10;;;;;;;;;;4435329;32;20075;-71
2022/11/13 14:59:55;;;;;;;8.55;7.57;;;;;;;;;;4431929;32;20425;-70
2022/11/13 15:02:20;;;;;;;10.32;8.02;;;;;;;;;;4431053;32;20046;-72
2022/11/13 15:04:46;;;;;;;10.27;8.35;;;;;;;;;;4432053;32;20050;-72
2022/11/13 15:07:44;;;;;;;9.55;7.80;;;;;;;;;;4433850;32;20029;-72
2022/11/13 15:10:12;;;;;;;8.73;7.60;;;;;;;;;;4416964;32;20172;-71
2022/11/13 15:12:37;;;;;;;12.95;9.48;;;;;;;;;;4448506;32;20030;-71
2022/11/13 15:15:03;;;;;;;10.55;8.27;;;;;;;;;;4448701;32;20033;-71
2022/11/13 15:17:29;;;;;;;15.23;9.57;;;;;;;;;;4449352;32;20037;-71
2022/11/13 15:19:54;;;;;;;11.85;9.68;;;;;;;;;;4450584;32;20156;-72
2022/11/13 15:22:19;;;;;;;13.40;9.85;;;;;;;;;;4451698;32;20077;-72
2022/11/13 15:24:44;;;;;;;13.05;9.55;;;;;;;;;;4449669;32;20077;-72
2022/11/13 15:27:14;;;;;;;14.80;10.93;;;;;;;;;;4450006;32;20418;-72
2022/11/13 15:29:39;;;;;;;13.62;10.35;;;;;;;;;;4450628;32;20124;-72
2022/11/13 15:32:08;;;;;;;16.48;10.55;;;;;;;;;;4448151;32;20088;-71
2022/11/13 15:34:33;;;;;;;12.65;10.02;;;;;;;;;;4441985;32;20041;-71
2022/11/13 15:36:58;;;;;;;13.38;10.32;;;;;;;;;;4432580;32;20136;-71
2022/11/13 15:39:23;;;;;;;16.55;10.05;;;;;;;;;;4440923;32;20115;-72
2022/11/13 15:41:48;;;;;;;18.45;10.13;;;;;;;;;;4440756;32;20029;-71
2022/11/13 15:44:14;;;;;;;16.98;10.43;;;;;;;;;;4440774;32;20494;-71
2022/11/13 15:46:39;;;;;;;;;;;;;;;;;;4439840;32;20056;-71
2022/11/13 15:49:04;;;;;;;15.18;11.73;;;;;;;;;;4442601;32;20023;-71
2022/11/13 15:51:33;;;;;;;17.80;11.98;;;;;;;;;;4433161;32;20312;-72
2022/11/13 15:54:21;;;;;;;16.73;11.52;;;;;;;;;;4441249;32;20083;-71
2022/11/13 15:56:46;;;;;;;13.88;10.90;;;;;;;;;;4441468;32;20171;-72
2022/11/13 15:59:12;;;;;;;14.63;11.63;;;;;;;;;;4441439;32;20161;-72
2022/11/13 16:01:38;;;;;;;19.55;12.68;;;;;;;;;;4440665;32;20305;-72
2022/11/13 16:04:04;;;;;;;19.15;13.07;;;;;;;;;;4443699;32;20056;-71
2022/11/13 16:06:32;;;;;;;23.48;14.50;;;;;;;;;;4439115;32;20053;-71
2022/11/13 16:08:57;;;;;;;34.15;19.45;;;;;;;;;;4433294;32;20052;-72
2022/11/13 16:11:23;;;;;;;26.95;18.15;;;;;;;;;;4439054;32;20034;-71